Time;durP1;ratioP1;P1;durP2;ratioP2;P2;SDS_P1;SDS_P2;PMS_P1;PMS_P2;Temp;Humidity;BMP_temperature;BMP_pressure;BME280_temperature;BME280_humidity;BME280_pressure;Samples;Min_cycle;Max_cycle;Signal;HPM_P1;HPM_P2
2021/04/27 00:01:06;;;;;;;9.80;3.67;;;;;;;13.78;44.21;93568.75;5009185;28;20026;-69
2021/04/27 00:03:33;;;;;;;7.35;3.17;;;;;;;13.77;44.53;93559.13;4996139;28;20036;-68
2021/04/27 00:05:59;;;;;;;9.73;3.80;;;;;;;13.78;44.40;93576.78;5010598;28;20092;-69
2021/04/27 00:08:25;;;;;;;8.32;2.90;;;;;;;13.79;43.88;93577.56;5009466;28;20051;-69
2021/04/27 00:10:50;;;;;;;5.15;3.33;;;;;;;13.69;44.45;93591.41;5009367;28;20017;-69
2021/04/27 00:13:16;;;;;;;8.70;3.03;;;;;;;13.70;45.26;93599.13;5009259;28;20021;-69
2021/04/27 00:15:41;;;;;;;10.00;3.08;;;;;;;13.62;45.92;93608.06;4991164;28;20517;-69
2021/04/27 00:18:06;;;;;;;10.23;3.58;;;;;;;13.46;45.13;93583.09;4994628;28;20026;-68
2021/04/27 00:20:32;;;;;;;7.63;3.13;;;;;;;13.47;46.21;93598.03;5009372;28;20026;-68
2021/04/27 00:22:58;;;;;;;7.13;3.35;;;;;;;13.54;47.73;93585.66;5009192;28;20028;-68
2021/04/27 00:25:24;;;;;;;6.25;3.25;;;;;;;13.49;48.68;93585.88;5004783;28;20033;-68
2021/04/27 00:27:52;;;;;;;7.57;3.10;;;;;;;13.45;47.64;93582.31;4998498;28;20032;-69
2021/04/27 00:30:20;;;;;;;8.30;3.33;;;;;;;13.30;47.44;93586.47;5001821;28;20022;-69
2021/04/27 00:32:46;;;;;;;5.72;3.05;;;;;;;13.30;47.31;93615.91;4997637;28;20022;-68
2021/04/27 00:35:12;;;;;;;8.38;3.30;;;;;;;13.33;47.93;93596.50;4990532;28;20030;-68
2021/04/27 00:37:38;;;;;;;6.28;3.60;;;;;;;13.36;47.56;93598.50;5002939;28;20022;-69
2021/04/27 00:40:06;;;;;;;6.35;3.25;;;;;;;13.38;48.08;93601.63;5003675;28;20563;-69
2021/04/27 00:42:34;;;;;;;5.25;3.20;;;;;;;13.36;48.55;93606.53;4995090;28;20071;-69
2021/04/27 00:44:59;;;;;;;7.10;2.92;;;;;;;13.36;48.58;93595.81;4989416;28;20062;-69
2021/04/27 00:47:25;;;;;;;8.23;3.55;;;;;;;13.36;48.56;93595.81;4996726;28;20104;-69
2021/04/27 00:49:53;;;;;;;9.13;4.53;;;;;;;13.37;48.29;93584.00;5014407;28;21937;-68
2021/04/27 00:52:19;;;;;;;7.95;3.20;;;;;;;13.41;48.29;93586.78;5012836;28;20095;-68
2021/04/27 00:54:45;;;;;;;6.78;2.95;;;;;;;13.44;47.63;93576.19;5013169;28;20477;-67
2021/04/27 00:57:10;;;;;;;5.95;3.13;;;;;;;13.46;48.21;93556.34;5001079;28;20041;-69
2021/04/27 00:59:35;;;;;;;6.10;2.88;;;;;;;13.50;49.31;93549.19;5002961;28;20030;-68
2021/04/27 01:02:01;;;;;;;5.93;3.10;;;;;;;13.51;48.83;93553.41;5000140;28;20030;-67
2021/04/27 01:04:27;;;;;;;7.45;3.53;;;;;;;13.52;48.49;93549.63;5001404;28;20143;-69
2021/04/27 01:06:52;;;;;;;7.07;3.33;;;;;;;13.43;48.86;93560.44;5013956;28;20026;-69
2021/04/27 01:09:38;;;;;;;9.75;3.88;;;;;;;13.40;49.61;93559.22;5004494;28;20034;-69
2021/04/27 01:12:09;;;;;;;8.05;3.17;;;;;;;13.45;49.90;93558.22;5012897;28;20018;-68
2021/04/27 01:14:42;;;;;;;7.15;3.45;;;;;;;13.45;49.88;93555.53;5005316;28;20054;-69
2021/04/27 01:17:11;;;;;;;9.45;3.35;;;;;;;13.48;49.56;93559.44;5010539;28;20041;-69
2021/04/27 01:19:44;;;;;;;14.23;3.80;;;;;;;13.41;50.10;93571.50;5007990;28;20576;-68
2021/04/27 01:22:14;;;;;;;5.85;3.63;;;;;;;13.35;50.43;93567.50;5007441;28;20084;-70
2021/04/27 01:24:49;;;;;;;6.13;3.30;;;;;;;13.33;50.53;93577.78;4996488;28;20032;-68
2021/04/27 01:27:17;;;;;;;11.23;3.15;;;;;;;13.34;50.95;93565.94;5012559;28;20037;-68
2021/04/27 01:29:43;;;;;;;7.45;4.63;;;;;;;13.31;51.28;93576.53;5006257;28;20442;-69
2021/04/27 01:32:09;;;;;;;5.57;3.25;;;;;;;13.27;51.75;93546.97;5004409;28;20017;-69
2021/04/27 01:34:39;;;;;;;7.10;3.35;;;;;;;13.25;52.37;93546.53;5000465;28;20117;-69
2021/04/27 01:37:06;;;;;;;7.40;3.72;;;;;;;13.27;52.03;93548.84;5000413;28;20030;-68
2021/04/27 01:39:33;;;;;;;16.60;3.42;;;;;;;13.30;52.89;93548.22;5005115;28;20414;-69
2021/04/27 01:42:01;;;;;;;7.30;3.55;;;;;;;13.20;53.02;93565.47;5008391;28;20106;-69
2021/04/27 01:44:31;;;;;;;5.85;3.17;;;;;;;13.15;53.04;93547.00;5002645;28;20027;-69
2021/04/27 01:46:57;;;;;;;6.95;3.08;;;;;;;13.11;53.80;93546.88;5000771;28;20030;-68
2021/04/27 01:49:24;;;;;;;6.45;3.10;;;;;;;13.14;53.94;93561.47;5008839;28;20030;-69
2021/04/27 01:51:51;;;;;;;6.00;2.67;;;;;;;13.08;53.76;93557.47;5007955;28;20026;-69
2021/04/27 01:54:20;;;;;;;7.50;3.13;;;;;;;13.09;53.50;93553.66;5005064;28;20030;-69
2021/04/27 01:56:46;;;;;;;9.40;3.25;;;;;;;13.09;53.00;93545.63;4993432;28;20096;-69
2021/04/27 01:59:11;;;;;;;9.15;2.92;;;;;;;13.11;53.25;93543.41;5009594;28;20038;-68
2021/04/27 02:01:36;;;;;;;5.90;3.45;;;;;;;13.14;54.02;93551.53;4999826;28;20117;-68
2021/04/27 02:04:02;;;;;;;9.02;3.42;;;;;;;13.11;55.11;93562.13;5008489;28;20031;-69
2021/04/27 02:06:29;;;;;;;6.55;3.15;;;;;;;13.08;55.16;93568.16;5009662;28;20045;-68
2021/04/27 02:09:00;;;;;;;7.72;3.47;;;;;;;13.08;55.24;93568.16;5004630;28;20030;-69
2021/04/27 02:11:29;;;;;;;7.38;3.15;;;;;;;13.06;56.07;93560.47;5003871;28;20107;-69
2021/04/27 02:13:54;;;;;;;5.85;3.33;;;;;;;13.03;56.29;93561.16;5011585;28;20088;-69
2021/04/27 02:16:26;;;;;;;7.88;3.70;;;;;;;13.05;55.93;93559.69;5006524;28;20493;-68
2021/04/27 02:18:57;;;;;;;9.60;4.32;;;;;;;13.01;53.71;93552.69;5002396;28;20029;-69
2021/04/27 02:21:25;;;;;;;10.65;3.38;;;;;;;12.99;54.98;93547.66;5004649;28;20029;-68
2021/04/27 02:49:16;;;;;;;6.75;3.13;;;;;;;12.45;53.79;93510.41;5182617;27;20389;-68
2021/04/27 02:51:41;;;;;;;8.48;3.88;;;;;;;12.47;54.75;93520.78;5146173;27;20031;-67
2021/04/27 02:54:07;;;;;;;6.80;3.42;;;;;;;12.48;55.96;93519.69;5145520;27;20430;-67
2021/04/27 02:56:34;;;;;;;5.75;3.55;;;;;;;12.47;55.17;93526.91;5145709;27;20053;-67
2021/04/27 02:59:03;;;;;;;9.32;3.55;;;;;;;12.53;55.57;93522.91;5146265;27;20056;-67
2021/04/27 03:01:29;;;;;;;7.60;3.22;;;;;;;12.53;54.60;93522.13;5144032;27;20112;-67
2021/04/27 03:03:54;;;;;;;10.75;3.20;;;;;;;12.57;54.14;93525.69;5146861;27;20413;-67
2021/04/27 03:06:20;;;;;;;10.75;3.90;;;;;;;12.62;55.93;93526.25;5145579;27;20027;-67
2021/04/27 03:08:46;;;;;;;8.07;3.90;;;;;;;12.65;58.66;93535.50;5133989;27;20059;-69
2021/04/27 03:11:11;;;;;;;7.75;4.20;;;;;;;12.57;58.75;93531.81;5132752;27;20058;-67
2021/04/27 03:13:36;;;;;;;8.43;3.83;;;;;;;12.55;58.71;93535.94;5144184;27;20463;-70
2021/04/27 03:16:02;;;;;;;7.28;3.50;;;;;;;12.55;56.96;93542.06;5144463;27;20093;-69
2021/04/27 03:18:28;;;;;;;6.68;3.53;;;;;;;12.56;56.83;93553.56;5143420;27;20027;-68
2021/04/27 03:20:53;;;;;;;8.73;4.00;;;;;;;12.59;57.86;93552.88;5140944;27;20026;-68
2021/04/27 03:23:21;;;;;;;8.13;4.07;;;;;;;12.59;58.97;93542.97;5143785;27;20054;-70
2021/04/27 03:25:46;;;;;;;10.57;5.50;;;;;;;12.57;60.16;93545.19;5142519;27;20080;-70
2021/04/27 03:28:12;;;;;;;7.45;5.30;;;;;;;12.56;60.07;93545.53;5140200;27;20382;-68
2021/04/27 03:30:37;;;;;;;9.00;4.43;;;;;;;12.53;60.40;93530.16;5138152;27;20085;-68
2021/04/27 03:33:03;;;;;;;7.95;4.82;;;;;;;12.50;60.78;93528.16;5143601;27;20034;-72
2021/04/27 03:35:29;;;;;;;6.82;4.45;;;;;;;12.46;61.08;93528.03;5127153;27;20092;-72
2021/04/27 03:37:55;;;;;;;11.82;5.50;;;;;;;12.40;61.19;93516.78;5127198;27;20024;-74
2021/04/27 03:40:20;;;;;;;10.68;5.38;;;;;;;12.36;61.45;93526.56;5144546;27;20026;-73
2021/04/27 03:42:46;;;;;;;11.88;5.18;;;;;;;12.36;60.99;93533.81;5126989;27;20048;-72
2021/04/27 03:45:18;;;;;;;12.15;6.57;;;;;;;12.33;61.27;93534.47;5144075;27;20080;-71
2021/04/27 03:47:44;;;;;;;9.35;4.97;;;;;;;12.27;62.00;93525.09;5147637;27;20047;-71
2021/04/27 03:50:15;;;;;;;12.52;5.88;;;;;;;12.24;61.68;93524.66;5133868;27;20054;-72
2021/04/27 03:52:40;;;;;;;12.02;5.60;;;;;;;12.19;62.17;93535.56;5132511;27;20038;-74
2021/04/27 03:55:06;;;;;;;14.85;5.60;;;;;;;12.19;62.13;93538.22;5131922;27;20028;-69
2021/04/27 03:57:32;;;;;;;11.95;5.47;;;;;;;12.21;61.98;93540.56;5121012;27;20030;-69
2021/04/27 03:59:57;;;;;;;11.23;5.70;;;;;;;12.21;62.15;93538.69;5118230;27;20486;-68
2021/04/27 04:02:23;;;;;;;8.70;4.88;;;;;;;12.21;62.26;93557.38;5120197;27;20034;-69
2021/04/27 04:04:48;;;;;;;11.18;5.38;;;;;;;12.22;62.57;93550.16;5133107;27;20058;-68
2021/04/27 04:07:14;;;;;;;8.30;5.20;;;;;;;12.19;62.68;93546.25;5125186;27;20394;-68
2021/04/27 04:09:39;;;;;;;8.50;4.57;;;;;;;12.13;62.92;93555.59;5122216;27;20038;-69
2021/04/27 04:12:08;;;;;;;11.00;5.07;;;;;;;12.13;62.91;93574.28;5127804;27;20486;-69
2021/04/27 04:14:35;;;;;;;10.43;5.25;;;;;;;12.14;62.58;93562.47;5129349;27;20073;-69
2021/04/27 04:17:00;;;;;;;8.57;4.93;;;;;;;12.21;62.76;93549.38;5132028;27;20358;-70
2021/04/27 04:19:28;;;;;;;9.65;5.70;;;;;;;12.22;63.12;93561.59;5129731;27;20023;-68
2021/04/27 04:21:54;;;;;;;14.35;5.97;;;;;;;12.28;62.80;93561.41;5118253;27;20390;-68
2021/04/27 04:26:45;;;;;;;16.23;7.43;;;;;;;12.42;62.62;93578.69;5112828;28;20062;-69
2021/04/27 04:29:11;;;;;;;9.77;5.97;;;;;;;12.42;63.25;93564.56;5129530;27;20110;-68
2021/04/27 04:31:36;;;;;;;13.52;6.45;;;;;;;12.45;63.51;93559.31;5128584;27;20401;-68
2021/04/27 04:34:02;;;;;;;9.80;5.32;;;;;;;12.41;62.94;93529.00;5131480;27;20023;-68
2021/04/27 04:36:28;;;;;;;13.32;6.70;;;;;;;12.49;62.84;93518.56;5126391;27;20026;-68
2021/04/27 04:38:53;;;;;;;11.05;5.63;;;;;;;12.55;62.56;93530.59;5113840;27;20028;-68
2021/04/27 04:41:19;;;;;;;10.35;6.35;;;;;;;12.59;62.49;93539.50;5113286;27;20462;-68
2021/04/27 04:43:44;;;;;;;11.10;5.75;;;;;;;12.59;63.22;93537.59;5124342;27;20085;-68
2021/04/27 04:46:10;;;;;;;9.98;5.50;;;;;;;12.64;63.15;93545.44;5128543;27;20026;-68
2021/04/27 04:48:35;;;;;;;13.02;6.32;;;;;;;12.72;63.32;93545.63;5118327;27;20505;-68
2021/04/27 04:51:02;;;;;;;17.35;6.75;;;;;;;12.71;63.32;93534.16;5129450;27;20031;-68
2021/04/27 04:53:28;;;;;;;15.57;6.10;;;;;;;12.61;62.90;93540.72;5119560;27;20015;-68
2021/04/27 04:55:53;;;;;;;9.98;6.25;;;;;;;12.60;63.41;93535.75;5129596;27;20023;-68
2021/04/27 04:58:19;;;;;;;10.45;5.57;;;;;;;12.67;63.46;93524.47;5131163;27;20389;-68
2021/04/27 05:00:44;;;;;;;10.15;5.72;;;;;;;12.65;63.15;93533.59;5123671;27;20130;-68
2021/04/27 05:03:09;;;;;;;12.27;6.28;;;;;;;12.67;63.24;93527.16;5119082;27;20054;-68
2021/04/27 05:05:35;;;;;;;14.02;5.53;;;;;;;12.75;63.06;93523.59;5121924;27;20094;-68
2021/04/27 05:08:22;;;;;;;16.83;6.20;;;;;;;12.81;62.98;93523.03;5126797;27;20027;-68
2021/04/27 05:10:48;;;;;;;13.30;6.55;;;;;;;12.90;62.54;93548.88;5130531;27;20080;-68
2021/04/27 05:13:14;;;;;;;10.15;6.00;;;;;;;12.99;62.07;93550.34;5130125;27;20023;-68
2021/04/27 05:15:40;;;;;;;12.40;6.28;;;;;;;13.04;61.88;93536.72;5119787;27;20034;-68
2021/04/27 05:18:09;;;;;;;11.15;6.03;;;;;;;13.15;61.54;93528.25;5131048;27;20528;-68
2021/04/27 05:20:34;;;;;;;11.07;6.35;;;;;;;13.25;60.97;93535.81;5120442;27;20027;-68
2021/04/27 05:23:01;;;;;;;13.70;6.15;;;;;;;13.31;60.81;93528.34;5123044;27;20026;-68
2021/04/27 05:25:28;;;;;;;12.85;6.65;;;;;;;13.39;60.49;93520.22;5128678;27;20026;-68
2021/04/27 05:27:53;;;;;;;20.30;13.07;;;;;;;13.50;59.91;93509.03;5128000;27;20019;-69
2021/04/27 05:30:21;;;;;;;13.00;7.60;;;;;;;13.59;60.00;93501.63;5146460;27;20367;-68
2021/04/27 05:32:47;;;;;;;14.18;5.88;;;;;;;13.70;59.44;93501.91;5128581;27;20048;-69
2021/04/27 05:35:13;;;;;;;10.25;5.82;;;;;;;13.68;58.95;93512.19;5124686;27;20494;-68
2021/04/27 05:37:38;;;;;;;10.23;6.00;;;;;;;13.75;58.63;93509.72;5126825;27;20026;-69
2021/04/27 05:40:05;;;;;;;14.98;7.20;;;;;;;13.79;58.33;93495.28;5128619;27;20523;-67
2021/04/27 05:42:30;;;;;;;10.88;5.25;;;;;;;13.91;57.91;93496.38;5130322;27;20470;-68
2021/04/27 05:44:55;;;;;;;8.95;5.20;;;;;;;13.96;57.57;93499.59;5114339;27;20016;-68
2021/04/27 05:47:21;;;;;;;13.77;5.43;;;;;;;14.03;57.77;93501.66;5117673;27;20065;-69
2021/04/27 05:49:47;;;;;;;12.55;6.40;;;;;;;14.13;57.53;93498.47;5130434;27;20032;-69
2021/04/27 05:52:13;;;;;;;14.13;6.32;;;;;;;14.22;57.16;93498.31;5130369;27;20023;-68
2021/04/27 05:54:38;;;;;;;11.23;5.90;;;;;;;14.34;56.81;93497.47;5122911;27;20031;-68
2021/04/27 05:57:04;;;;;;;10.43;5.22;;;;;;;14.44;56.53;93510.34;5125214;27;20031;-69
2021/04/27 05:59:29;;;;;;;18.33;5.78;;;;;;;14.51;55.87;93505.19;5121962;27;20065;-68
2021/04/27 06:01:55;;;;;;;11.18;5.80;;;;;;;14.51;55.65;93490.97;5128591;27;20097;-69
2021/04/27 06:04:21;;;;;;;13.77;6.80;;;;;;;14.61;55.35;93493.97;5127365;27;20107;-69
2021/04/27 06:06:46;;;;;;;13.80;5.60;;;;;;;14.71;55.00;93491.88;5120130;27;20026;-69
2021/04/27 06:09:15;;;;;;;10.65;5.72;;;;;;;14.79;55.36;93497.03;5129876;27;20061;-66
2021/04/27 06:11:41;;;;;;;13.55;5.55;;;;;;;14.89;55.29;93501.09;5129692;27;20511;-69
2021/04/27 06:14:06;;;;;;;11.15;5.13;;;;;;;15.00;54.05;93504.81;5126845;27;20039;-69
2021/04/27 06:16:32;;;;;;;14.70;5.50;;;;;;;15.08;53.55;93507.66;5128359;27;20023;-68
2021/04/27 06:18:58;;;;;;;19.83;6.25;;;;;;;15.10;53.12;93505.38;5126837;27;20027;-68
2021/04/27 06:21:24;;;;;;;9.82;5.55;;;;;;;15.20;53.90;93515.59;5125378;27;20035;-68
2021/04/27 06:23:50;;;;;;;9.32;5.30;;;;;;;15.28;53.17;93528.03;5127110;27;20110;-69
2021/04/27 06:26:16;;;;;;;13.70;5.40;;;;;;;15.35;52.91;93522.84;5130167;27;20054;-68
2021/04/27 06:28:41;;;;;;;13.43;5.35;;;;;;;15.39;50.96;93521.00;5128355;27;20050;-69
2021/04/27 06:31:07;;;;;;;20.83;6.18;;;;;;;15.35;51.89;93514.78;5113667;27;20080;-68
2021/04/27 06:33:32;;;;;;;13.00;5.57;;;;;;;15.47;52.51;93523.81;5127687;27;20537;-68
2021/04/27 06:35:57;;;;;;;10.40;4.78;;;;;;;15.59;51.43;93531.75;5125656;27;20024;-68
2021/04/27 06:38:23;;;;;;;14.43;6.20;;;;;;;15.65;51.29;93538.41;5129731;28;20042;-68
2021/04/27 06:40:51;;;;;;;19.15;6.93;;;;;;;15.70;50.20;93540.81;5127844;28;20494;-68
2021/04/27 06:43:18;;;;;;;11.65;6.25;;;;;;;15.68;51.40;93543.09;5126652;28;20066;-71
2021/04/27 06:45:43;;;;;;;11.48;5.97;;;;;;;15.72;50.92;93535.91;5120475;28;20076;-70
2021/04/27 06:48:09;;;;;;;12.90;5.80;;;;;;;15.66;51.33;93534.59;5110781;27;20039;-70
2021/04/27 06:50:36;;;;;;;11.77;5.97;;;;;;;15.68;50.79;93526.19;5128975;27;20078;-71
2021/04/27 06:53:02;;;;;;;11.77;5.93;;;;;;;15.71;50.83;93539.69;5126038;27;20019;-69
2021/04/27 06:55:27;;;;;;;14.45;6.75;;;;;;;15.72;50.53;93533.22;5120117;27;20030;-70
2021/04/27 06:57:53;;;;;;;15.70;6.22;;;;;;;15.79;50.83;93528.00;5109438;28;20020;-70
2021/04/27 07:00:19;;;;;;;18.40;5.82;;;;;;;15.89;50.86;93515.88;5126904;28;20087;-70
2021/04/27 07:02:45;;;;;;;17.90;6.68;;;;;;;16.04;51.03;93527.72;5128261;27;20027;-68
2021/04/27 07:05:11;;;;;;;14.88;6.38;;;;;;;16.13;50.12;93522.88;5111175;27;20030;-69
2021/04/27 07:07:37;;;;;;;17.30;7.13;;;;;;;16.20;49.90;93524.91;5109440;28;20021;-70
2021/04/27 07:10:03;;;;;;;15.52;6.53;;;;;;;16.25;49.62;93522.72;5128049;28;20426;-70
2021/04/27 07:12:29;;;;;;;16.23;5.82;;;;;;;16.28;49.33;93517.75;5128981;28;20023;-70
2021/04/27 07:14:54;;;;;;;14.43;5.63;;;;;;;16.24;48.89;93521.16;5128973;28;20034;-69
2021/04/27 07:17:20;;;;;;;20.95;6.57;;;;;;;16.31;49.44;93517.81;5112826;27;20111;-68
2021/04/27 07:19:45;;;;;;;12.93;6.43;;;;;;;16.31;48.79;93531.28;5126298;28;20078;-68
2021/04/27 07:22:11;;;;;;;13.45;6.38;;;;;;;16.39;48.72;93526.81;5130004;27;21041;-69
2021/04/27 07:24:37;;;;;;;14.82;5.53;;;;;;;16.48;48.64;93526.56;5132404;27;20031;-69
2021/04/27 07:27:02;;;;;;;17.45;5.13;;;;;;;16.57;47.91;93530.56;5132864;27;20027;-68
2021/04/27 07:29:28;;;;;;;7.97;5.03;;;;;;;16.61;47.79;93536.81;5133950;27;20087;-69
2021/04/27 07:31:53;;;;;;;9.77;5.45;;;;;;;16.69;47.28;93542.28;5132664;27;20475;-69
2021/04/27 07:34:19;;;;;;;15.80;5.57;;;;;;;16.72;47.36;93545.03;5133563;27;20023;-68
2021/04/27 07:36:44;;;;;;;16.73;6.38;;;;;;;16.69;46.11;93534.22;5129866;27;20033;-68
2021/04/27 07:39:11;;;;;;;23.58;6.35;;;;;;;16.71;47.36;93527.34;5113200;28;20027;-69
2021/04/27 07:41:37;;;;;;;17.98;5.75;;;;;;;16.71;46.74;93521.19;5113190;28;20035;-69
2021/04/27 07:44:03;;;;;;;22.05;6.18;;;;;;;16.80;46.33;93527.09;5113244;28;20077;-68
2021/04/27 07:46:29;;;;;;;11.05;6.00;;;;;;;16.86;46.70;93525.69;5113157;28;20024;-70
2021/04/27 07:48:54;;;;;;;19.67;7.05;;;;;;;16.92;46.31;93524.25;5131525;27;20127;-68
2021/04/27 07:51:20;;;;;;;11.25;5.68;;;;;;;17.05;45.74;93522.13;5133425;27;20387;-69
2021/04/27 07:53:45;;;;;;;10.45;5.38;;;;;;;17.17;45.37;93510.38;5133519;27;20054;-68
2021/04/27 07:56:11;;;;;;;17.42;5.80;;;;;;;17.18;45.52;93503.88;5129026;27;20027;-68
2021/04/27 07:58:36;;;;;;;14.68;6.18;;;;;;;17.18;45.35;93498.47;5130255;27;20121;-69
2021/04/27 08:01:02;;;;;;;15.48;5.55;;;;;;;17.18;44.88;93498.47;5112740;28;20028;-70
2021/04/27 08:03:28;;;;;;;14.73;6.07;;;;;;;17.19;44.88;93497.34;5128675;27;20438;-70
2021/04/27 08:05:54;;;;;;;23.17;6.07;;;;;;;17.25;45.24;93509.34;5128483;27;20161;-70
2021/04/27 08:08:19;;;;;;;13.00;6.05;;;;;;;17.18;44.00;93501.19;5128585;27;20049;-69
2021/04/27 08:10:46;;;;;;;19.33;6.40;;;;;;;17.25;44.36;93502.03;5129987;27;20038;-69
2021/04/27 08:13:11;;;;;;;11.05;5.53;;;;;;;17.41;44.45;93509.19;5132068;27;20030;-69
2021/04/27 08:15:36;;;;;;;9.68;5.57;;;;;;;17.53;44.48;93513.56;5131819;27;20397;-69
2021/04/27 08:18:04;;;;;;;13.18;5.55;;;;;;;17.63;44.49;93502.16;5131558;27;20023;-68
2021/04/27 08:20:31;;;;;;;8.98;5.63;;;;;;;17.69;43.27;93508.78;5131811;27;20054;-68
2021/04/27 08:22:57;;;;;;;16.65;5.53;;;;;;;17.75;44.10;93493.06;5129210;27;20042;-68
2021/04/27 08:25:23;;;;;;;17.08;6.47;;;;;;;17.85;43.90;93497.84;5131287;27;20030;-68
2021/04/27 08:27:49;;;;;;;16.85;6.63;;;;;;;17.93;44.10;93509.47;5133062;27;20024;-69
2021/04/27 08:30:17;;;;;;;17.60;4.85;;;;;;;17.96;42.73;93509.50;5132478;27;20110;-70
2021/04/27 08:32:43;;;;;;;7.93;5.57;;;;;;;18.00;42.17;93510.31;5132938;27;20088;-70
2021/04/27 08:35:10;;;;;;;14.10;5.88;;;;;;;18.02;42.20;93499.19;5132570;27;20031;-69
2021/04/27 08:37:36;;;;;;;11.15;5.38;;;;;;;18.06;40.55;93481.13;5132575;27;20035;-69
2021/04/27 08:40:04;;;;;;;18.83;5.10;;;;;;;18.13;40.89;93485.78;5132705;27;20030;-70
2021/04/27 08:42:32;;;;;;;10.70;5.03;;;;;;;18.02;42.15;93491.09;5132708;27;20034;-69
2021/04/27 08:44:58;;;;;;;17.17;5.63;;;;;;;18.02;42.15;93491.09;5131323;27;20474;-69
2021/04/27 08:47:24;;;;;;;14.90;6.30;;;;;;;18.04;41.68;93476.09;5111973;27;20119;-69
2021/04/27 08:49:51;;;;;;;17.13;4.72;;;;;;;18.21;41.37;93480.09;5112025;28;20420;-69
2021/04/27 08:52:17;;;;;;;13.05;4.63;;;;;;;18.42;41.32;93467.97;5111660;28;20026;-70
2021/04/27 08:54:43;;;;;;;17.08;4.60;;;;;;;18.67;41.02;93470.13;5128977;27;20024;-70
2021/04/27 08:57:09;;;;;;;18.08;4.72;;;;;;;18.80;40.88;93452.50;5132149;27;20058;-70
2021/04/27 08:59:34;;;;;;;10.77;4.35;;;;;;;18.80;39.78;93452.50;5132019;27;20027;-69
2021/04/27 09:02:00;;;;;;;9.23;5.10;;;;;;;18.76;39.91;93454.38;5127659;27;20046;-69
2021/04/27 09:04:40;;;;;;;8.43;4.65;;;;;;;18.87;39.80;93465.25;5129709;27;20038;-69
2021/04/27 09:07:08;;;;;;;11.85;4.80;;;;;;;18.87;40.07;93467.97;5129811;27;20015;-70
2021/04/27 09:09:54;;;;;;;10.02;4.30;;;;;;;18.95;40.92;93464.16;5127046;27;20026;-71
2021/04/27 09:12:32;;;;;;;11.20;4.65;;;;;;;19.18;40.78;93472.06;5112879;27;20335;-71
2021/04/27 09:14:59;;;;;;;10.88;3.60;;;;;;;19.38;36.50;93486.84;5111566;28;20057;-71
2021/04/27 09:17:30;;;;;;;8.43;3.63;;;;;;;19.33;36.81;93495.28;5111219;28;20070;-71
2021/04/27 09:19:57;;;;;;;13.07;5.55;;;;;;;19.25;37.67;93493.69;5128489;27;20031;-70
2021/04/27 09:22:29;;;;;;;11.90;4.68;;;;;;;19.15;39.25;93473.59;5131431;27;20029;-70
2021/04/27 09:24:56;;;;;;;10.30;4.13;;;;;;;19.35;38.19;93471.38;5118226;27;20509;-70
2021/04/27 09:27:25;;;;;;;16.50;4.20;;;;;;;19.42;38.16;93471.41;5126799;27;20034;-71
2021/04/27 09:29:51;;;;;;;10.88;4.55;;;;;;;19.45;38.16;93470.63;5111415;28;20028;-70
2021/04/27 09:32:31;;;;;;;10.75;4.13;;;;;;;19.49;37.68;93467.97;5144903;27;20031;-71
2021/04/27 09:34:56;;;;;;;9.00;4.10;;;;;;;19.28;36.79;93457.06;5130307;27;20097;-71
2021/04/27 09:37:22;;;;;;;12.93;4.53;;;;;;;19.07;37.28;93449.59;5131701;27;20015;-71
2021/04/27 09:39:50;;;;;;;9.93;4.13;;;;;;;19.03;37.70;93444.94;5127173;27;20096;-71
2021/04/27 09:42:19;;;;;;;13.35;4.47;;;;;;;19.02;38.68;93443.38;5111077;28;20035;-70
2021/04/27 09:44:51;;;;;;;9.27;4.15;;;;;;;19.03;38.79;93444.16;5128917;27;20039;-71
2021/04/27 09:47:27;;;;;;;8.07;4.18;;;;;;;18.91;38.15;93434.47;5127927;27;20347;-71
2021/04/27 09:50:09;;;;;;;10.25;4.35;;;;;;;18.77;38.04;93420.84;5127008;27;20032;-71
2021/04/27 09:52:45;;;;;;;8.48;4.25;;;;;;;18.83;38.75;93413.97;5126552;27;20424;-70
2021/04/27 09:55:16;;;;;;;10.85;3.70;;;;;;;18.82;39.00;93402.38;5110955;28;20085;-70
2021/04/27 09:57:56;;;;;;;11.05;3.92;;;;;;;18.83;38.91;93393.13;5110543;28;20020;-70
2021/04/27 10:00:38;;;;;;;10.23;4.03;;;;;;;18.84;38.97;93400.06;5110677;28;20510;-70
2021/04/27 10:03:07;;;;;;;11.23;3.83;;;;;;;18.89;38.68;93396.25;5117616;27;20028;-71
2021/04/27 10:05:34;;;;;;;7.18;4.13;;;;;;;19.04;38.49;93397.88;5129452;27;20019;-70
2021/04/27 10:08:00;;;;;;;8.68;3.97;;;;;;;19.10;38.37;93406.41;5131047;27;20495;-70
2021/04/27 10:10:29;;;;;;;14.50;4.85;;;;;;;19.03;38.08;93426.03;5129368;27;20055;-70
2021/04/27 10:12:58;;;;;;;9.07;3.20;;;;;;;19.08;38.22;93426.84;5130811;27;20390;-70
2021/04/27 10:15:24;;;;;;;11.20;4.55;;;;;;;19.04;38.10;93432.22;5130703;27;20027;-70
2021/04/27 10:17:50;;;;;;;11.50;5.15;;;;;;;18.78;38.40;93441.25;5129524;27;20108;-70
2021/04/27 10:20:15;;;;;;;11.10;4.88;;;;;;;18.53;39.42;93441.84;5130549;27;20046;-71
2021/04/27 10:22:44;;;;;;;8.95;3.47;;;;;;;18.38;39.16;93446.38;5130721;27;20187;-70
2021/04/27 10:25:15;;;;;;;9.68;4.00;;;;;;;18.13;39.81;93439.94;5130979;27;20517;-70
2021/04/27 10:27:40;;;;;;;17.65;4.45;;;;;;;17.93;40.33;93445.56;5122388;27;20038;-70
2021/04/27 10:30:18;;;;;;;9.35;4.50;;;;;;;17.68;40.99;93439.06;5128006;27;20456;-70
2021/04/27 10:33:02;;;;;;;12.15;4.72;;;;;;;17.70;41.06;93442.16;5130836;27;20027;-68
2021/04/27 10:35:36;;;;;;;17.17;4.50;;;;;;;17.74;41.54;93446.44;5130269;27;20088;-68
2021/04/27 10:38:18;;;;;;;11.57;5.88;;;;;;;17.82;41.71;93448.06;5129418;27;20011;-68
2021/04/27 10:41:01;;;;;;;9.00;4.30;;;;;;;17.86;41.87;93440.06;5130895;27;20063;-68
2021/04/27 10:43:27;;;;;;;12.02;4.07;;;;;;;17.92;41.41;93440.53;5130406;27;20027;-70
2021/04/27 10:45:57;;;;;;;7.43;4.28;;;;;;;17.96;41.54;93444.03;5129360;27;20027;-68
2021/04/27 10:48:31;;;;;;;12.35;3.53;;;;;;;18.01;41.88;93447.16;5130168;27;20118;-69
2021/04/27 10:51:02;;;;;;;11.63;4.05;;;;;;;18.04;41.51;93448.34;5129080;28;20035;-68
2021/04/27 10:53:36;;;;;;;10.55;4.35;;;;;;;18.06;41.62;93446.06;5128730;27;20019;-70
2021/04/27 10:56:05;;;;;;;13.57;4.65;;;;;;;18.10;41.40;93438.00;5143579;27;20050;-69
2021/04/27 10:58:55;;;;;;;11.85;4.03;;;;;;;18.06;41.32;93435.28;5129136;27;20439;-68
2021/04/27 11:01:26;;;;;;;28.17;5.57;;;;;;;18.08;41.38;93426.81;5130198;27;20039;-69
2021/04/27 11:03:53;;;;;;;13.65;4.00;;;;;;;18.10;41.08;93428.00;5113927;27;20039;-68
2021/04/27 11:06:19;;;;;;;10.02;3.05;;;;;;;17.87;37.40;93436.25;5114421;28;20024;-68
2021/04/27 11:08:56;;;;;;;11.05;3.50;;;;;;;17.77;39.54;93432.25;5128871;27;20030;-71
2021/04/27 11:11:28;;;;;;;7.88;2.85;;;;;;;17.64;38.62;93422.84;5132593;27;20082;-70
2021/04/27 11:14:19;;;;;;;7.13;2.03;;;;;;;17.54;40.28;93415.41;5134241;27;20110;-72
2021/04/27 11:16:53;;;;;;;7.18;2.30;;;;;;;17.56;38.21;93415.81;5131044;27;20030;-71
2021/04/27 11:19:19;;;;;;;9.73;2.28;;;;;;;17.54;37.22;93408.09;5132999;27;20707;-70
2021/04/27 11:21:53;;;;;;;6.40;2.50;;;;;;;17.42;38.62;93403.75;5131155;27;20035;-71
2021/04/27 11:24:37;;;;;;;7.55;1.90;;;;;;;17.42;39.43;93400.28;5132798;27;20455;-71
2021/04/27 11:27:03;;;;;;;3.70;2.13;;;;;;;17.58;41.74;93394.69;5129773;27;20505;-71
2021/04/27 11:29:30;;;;;;;5.75;1.80;;;;;;;17.76;40.88;93386.78;5113506;28;20032;-70
2021/04/27 11:32:07;;;;;;;4.72;1.95;;;;;;;17.91;39.87;93382.34;5129207;27;20035;-71
2021/04/27 11:34:50;;;;;;;4.82;2.22;;;;;;;18.03;40.04;93365.88;5113513;28;20402;-71
2021/04/27 11:37:23;;;;;;;5.88;2.50;;;;;;;18.10;42.67;93351.72;5132375;27;20046;-71
2021/04/27 11:39:50;;;;;;;7.93;1.92;;;;;;;18.06;42.18;93367.09;5129065;27;20027;-71
2021/04/27 11:42:30;;;;;;;3.45;1.98;;;;;;;18.02;44.26;93361.66;5113355;27;20181;-70
2021/04/27 11:45:06;;;;;;;7.97;2.40;;;;;;;18.00;43.12;93359.31;5129360;27;20079;-71
2021/04/27 11:47:34;;;;;;;7.47;2.40;;;;;;;18.09;42.68;93360.94;5132337;27;20114;-70
2021/04/27 11:50:01;;;;;;;6.60;2.45;;;;;;;18.00;41.53;93363.94;5129535;27;20087;-70
2021/04/27 11:52:41;;;;;;;6.50;3.05;;;;;;;17.92;42.07;93359.63;5117445;27;20024;-70
2021/04/27 11:55:19;;;;;;;5.45;1.83;;;;;;;17.94;42.52;93368.13;5131270;27;20091;-70
2021/04/27 11:57:45;;;;;;;6.03;1.60;;;;;;;17.92;41.50;93373.13;5132565;27;20469;-70
2021/04/27 12:00:12;;;;;;;3.47;2.05;;;;;;;17.80;41.67;93374.91;5132345;27;20027;-70